Time;durP1;ratioP1;P1;durP2;ratioP2;P2;SDS_P1;SDS_P2;PMS_P1;PMS_P2;Temp;Humidity;BMP_temperature;BMP_pressure;BME280_temperature;BME280_humidity;BME280_pressure;Samples;Min_cycle;Max_cycle;Signal;HPM_P1;HPM_P2
2022/08/21 00:09:08;;;;;;;10.6;14.4;;;;;;;19.4;100;98070;;;;
2022/08/21 00:19:08;;;;;;;10.6;15.1;;;;;;;19.4;100;98050;;;;
2022/08/21 00:29:08;;;;;;;10.6;15.1;;;;;;;19.3;100;98050;;;;
2022/08/21 00:40:08;;;;;;;10.6;15.1;;;;;;;19.3;100;98050;;;;
2022/08/21 00:50:08;;;;;;;9.7;15.2;;;;;;;19.2;100;98040;;;;
2022/08/21 01:00:08;;;;;;;9.7;15.2;;;;;;;19.1;100;98030;;;;
2022/08/21 01:11:08;;;;;;;9.7;15.2;;;;;;;19.1;100;98030;;;;
2022/08/21 01:21:08;;;;;;;8.7;12.6;;;;;;;19.1;100;98020;;;;
2022/08/21 01:32:08;;;;;;;8.7;12.6;;;;;;;19.2;100;97990;;;;
2022/08/21 01:43:08;;;;;;;8.7;12.6;;;;;;;19.3;100;97980;;;;
2022/08/21 01:54:08;;;;;;;9.5;12.3;;;;;;;19.2;100;97990;;;;
2022/08/21 02:05:08;;;;;;;9.5;12.3;;;;;;;19.4;100;97980;;;;
2022/08/21 02:15:09;;;;;;;11.5;16.2;;;;;;;19.4;100;97970;;;;
2022/08/21 02:26:08;;;;;;;11.5;16.2;;;;;;;19.5;100;97960;;;;
2022/08/21 02:37:08;;;;;;;11.5;16.2;;;;;;;19.3;100;97960;;;;
2022/08/21 02:47:08;;;;;;;12;16;;;;;;;19.5;100;97950;;;;
2022/08/21 02:57:08;;;;;;;12;16;;;;;;;19.6;100;97940;;;;
2022/08/21 03:08:09;;;;;;;12;16;;;;;;;19.6;100;97940;;;;
2022/08/21 03:18:08;;;;;;;9.9;14.7;;;;;;;19.8;100;97950;;;;
2022/08/21 03:28:09;;;;;;;9.9;14.7;;;;;;;19.9;100;97960;;;;
2022/08/21 03:39:08;;;;;;;9.9;14.7;;;;;;;19.8;100;97980;;;;
2022/08/21 03:49:08;;;;;;;8.7;13.8;;;;;;;19.7;100;97980;;;;
2022/08/21 04:00:09;;;;;;;8.7;13.8;;;;;;;19.8;100;97980;;;;
2022/08/21 04:10:08;;;;;;;8.7;13.8;;;;;;;20;100;97990;;;;
2022/08/21 04:21:08;;;;;;;9.2;13.1;;;;;;;20.1;100;97990;;;;
2022/08/21 04:31:08;;;;;;;9.2;13.1;;;;;;;20.2;100;97990;;;;
2022/08/21 04:41:08;;;;;;;9.2;13.1;;;;;;;20.4;100;97990;;;;
2022/08/21 04:51:08;;;;;;;9.9;12.5;;;;;;;20.4;100;98000;;;;
2022/08/21 05:01:08;;;;;;;9.9;12.5;;;;;;;20.5;100;97990;;;;
2022/08/21 05:12:08;;;;;;;9.9;12.5;;;;;;;20.5;100;98000;;;;
2022/08/21 05:23:08;;;;;;;13.8;18.8;;;;;;;20.7;100;98010;;;;
2022/08/21 05:33:08;;;;;;;13.8;18.8;;;;;;;21.1;100;98010;;;;
2022/08/21 05:43:08;;;;;;;13.8;18.8;;;;;;;21.3;100;98010;;;;
2022/08/21 05:53:09;;;;;;;13.9;17.1;;;;;;;21.6;100;98010;;;;
2022/08/21 06:03:08;;;;;;;13.9;17.1;;;;;;;21.9;100;98010;;;;
2022/08/21 06:14:08;;;;;;;13.9;17.1;;;;;;;22.2;100;98010;;;;
2022/08/21 06:24:08;;;;;;;18.4;26.6;;;;;;;22.5;100;98010;;;;
2022/08/21 06:35:08;;;;;;;18.4;26.6;;;;;;;22.4;100;98020;;;;
2022/08/21 06:45:08;;;;;;;17;22;;;;;;;22.6;100;98030;;;;
2022/08/21 06:55:08;;;;;;;17;22;;;;;;;22.7;100;98030;;;;
2022/08/21 07:06:08;;;;;;;17;22;;;;;;;22.5;100;98030;;;;
2022/08/21 07:16:08;;;;;;;19.7;25.1;;;;;;;22.7;100;98040;;;;
2022/08/21 07:27:08;;;;;;;19.7;25.1;;;;;;;22.9;100;98040;;;;
2022/08/21 07:38:08;;;;;;;19.7;25.1;;;;;;;22.6;100;98040;;;;
2022/08/21 07:49:08;;;;;;;21.6;31.3;;;;;;;22.4;100;98040;;;;
2022/08/21 07:59:08;;;;;;;21.6;31.3;;;;;;;22.2;100;98050;;;;
2022/08/21 08:10:08;;;;;;;21.6;31.3;;;;;;;22.9;100;98040;;;;
2022/08/21 08:20:08;;;;;;;20;28.4;;;;;;;22.6;100;98040;;;;
2022/08/21 08:31:08;;;;;;;20;28.4;;;;;;;22.7;100;98040;;;;
2022/08/21 08:42:09;;;;;;;20;28.4;;;;;;;22.8;100;98030;;;;
2022/08/21 08:52:08;;;;;;;20;28.1;;;;;;;22.8;100;98030;;;;
2022/08/21 09:03:08;;;;;;;20;28.1;;;;;;;23.4;100;98030;;;;
2022/08/21 09:13:08;;;;;;;20;28.1;;;;;;;23.3;100;98030;;;;
2022/08/21 09:24:10;;;;;;;20.3;29.2;;;;;;;24.1;100;98020;;;;
2022/08/21 09:34:08;;;;;;;20.3;29.2;;;;;;;24.1;100;98020;;;;
2022/08/21 09:44:08;;;;;;;20.3;29.2;;;;;;;24.1;100;98010;;;;
2022/08/21 09:57:37;;;;;;;19.3;26.2;;;;;;;25.2;100;98000;;;;
2022/08/21 10:06:09;;;;;;;19.3;26.2;;;;;;;26;100;98010;;;;
2022/08/21 10:16:08;;;;;;;17.4;21.5;;;;;;;26.8;100;98010;;;;
2022/08/21 10:27:08;;;;;;;17.4;21.5;;;;;;;25;100;98020;;;;
2022/08/21 10:37:08;;;;;;;17.4;21.5;;;;;;;22.9;100;98030;;;;
2022/08/21 10:47:08;;;;;;;8.1;12.4;;;;;;;22;100;98040;;;;
2022/08/21 10:58:08;;;;;;;8.1;12.4;;;;;;;21.6;100;98050;;;;
2022/08/21 11:08:08;;;;;;;8.1;12.4;;;;;;;20.9;100;98060;;;;
2022/08/21 11:19:08;;;;;;;2.5;5.9;;;;;;;21.2;100;98050;;;;
2022/08/21 11:30:08;;;;;;;2.5;5.9;;;;;;;21.1;100;98050;;;;
2022/08/21 11:40:08;;;;;;;2.5;5.9;;;;;;;21.5;100;98050;;;;
2022/08/21 11:51:08;;;;;;;1.8;3.9;;;;;;;21.8;100;98040;;;;
2022/08/21 12:02:08;;;;;;;1.8;3.9;;;;;;;22;100;98040;;;;
2022/08/21 12:12:09;;;;;;;1.8;3.9;;;;;;;21.8;100;98040;;;;
2022/08/21 12:23:08;;;;;;;2.4;5.1;;;;;;;22.2;100;98020;;;;
2022/08/21 12:33:08;;;;;;;2.4;5.1;;;;;;;22.2;100;98020;;;;
2022/08/21 12:43:09;;;;;;;2.4;5.1;;;;;;;21.9;100;98020;;;;
2022/08/21 12:53:08;;;;;;;2.3;5.4;;;;;;;22;100;98030;;;;
2022/08/21 13:04:08;;;;;;;2.3;5.4;;;;;;;22.6;100;98030;;;;
2022/08/21 13:15:08;;;;;;;2.3;5.4;;;;;;;22.7;100;98020;;;;
2022/08/21 13:25:08;;;;;;;2;4.1;;;;;;;22.3;100;98020;;;;
2022/08/21 13:36:08;;;;;;;2;4.1;;;;;;;22.9;100;98030;;;;
2022/08/21 13:46:08;;;;;;;1.7;3.4;;;;;;;22.2;100;98030;;;;
2022/08/21 13:57:11;;;;;;;1.7;3.4;;;;;;;22.3;100;98050;;;;
2022/08/21 14:07:08;;;;;;;1.7;3.4;;;;;;;22.1;100;98050;;;;
2022/08/21 14:18:09;;;;;;;2.3;4.2;;;;;;;22.3;100;98050;;;;
2022/08/21 14:28:08;;;;;;;2.3;4.2;;;;;;;21.6;100;98050;;;;
2022/08/21 14:39:08;;;;;;;2.3;4.2;;;;;;;21.2;100;98040;;;;
2022/08/21 14:49:08;;;;;;;2.2;3.9;;;;;;;20.8;100;98060;;;;
2022/08/21 14:59:09;;;;;;;2.2;3.9;;;;;;;20.4;100;98070;;;;
2022/08/21 15:10:08;;;;;;;2.2;3.9;;;;;;;20;100;98070;;;;
2022/08/21 15:20:09;;;;;;;2.4;4;;;;;;;19.9;100;98080;;;;
2022/08/21 15:31:08;;;;;;;2.4;4;;;;;;;19.2;100;98100;;;;
2022/08/21 15:42:08;;;;;;;2.4;4;;;;;;;18.9;100;98110;;;;
2022/08/21 15:52:08;;;;;;;3.3;6;;;;;;;18.7;100;98140;;;;
2022/08/21 16:03:11;;;;;;;3.3;6;;;;;;;18.3;100;98130;;;;
2022/08/21 16:13:08;;;;;;;3.3;6;;;;;;;17.9;100;98140;;;;
2022/08/21 16:24:08;;;;;;;5.1;7.9;;;;;;;17.7;100;98150;;;;
2022/08/21 16:35:08;;;;;;;5.1;7.9;;;;;;;17.5;100;98140;;;;
2022/08/21 16:45:08;;;;;;;5.1;7.9;;;;;;;17.2;100;98120;;;;
2022/08/21 16:55:08;;;;;;;4.7;8.9;;;;;;;16.9;100;98110;;;;
2022/08/21 17:06:08;;;;;;;4.7;8.9;;;;;;;16.8;100;98120;;;;
2022/08/21 17:16:08;;;;;;;3;5.4;;;;;;;16.6;100;98110;;;;
2022/08/21 17:27:08;;;;;;;3;5.4;;;;;;;16.5;100;98120;;;;
2022/08/21 17:38:08;;;;;;;3;5.4;;;;;;;16.3;100;98130;;;;
2022/08/21 17:49:10;;;;;;;2.4;4.3;;;;;;;16.4;100;98140;;;;
2022/08/21 18:00:09;;;;;;;2.4;4.3;;;;;;;16.4;100;98140;;;;
2022/08/21 18:11:08;;;;;;;2.4;4.3;;;;;;;16.3;100;98150;;;;
2022/08/21 18:22:08;;;;;;;2.6;4.2;;;;;;;16.4;100;98150;;;;
2022/08/21 18:33:08;;;;;;;2.6;4.2;;;;;;;16.3;100;98140;;;;
2022/08/21 18:43:08;;;;;;;2.6;4.2;;;;;;;16.2;100;98150;;;;
2022/08/21 18:53:08;;;;;;;2.4;4.5;;;;;;;16.3;100;98160;;;;
2022/08/21 19:04:08;;;;;;;2.4;4.5;;;;;;;16.2;100;98160;;;;
2022/08/21 19:15:08;;;;;;;2.4;4.5;;;;;;;16.3;100;98180;;;;
2022/08/21 19:25:57;;;;;;;3.7;7.3;;;;;;;16.2;100;98170;;;;
2022/08/21 19:35:57;;;;;;;3.7;7.3;;;;;;;16.2;100;98170;;;;
2022/08/21 19:46:57;;;;;;;2.9;4.8;;;;;;;16.4;100;98160;;;;
2022/08/21 19:56:56;;;;;;;2.9;4.8;;;;;;;16.2;100;98150;;;;
2022/08/21 20:06:57;;;;;;;2.9;4.8;;;;;;;16.1;100;98140;;;;
2022/08/21 20:16:56;;;;;;;3.5;6.4;;;;;;;16.2;100;98140;;;;
2022/08/21 20:27:56;;;;;;;3.5;6.4;;;;;;;16.2;100;98140;;;;
2022/08/21 20:37:56;;;;;;;3.5;6.4;;;;;;;16.2;100;98140;;;;
2022/08/21 20:48:57;;;;;;;2.6;6.5;;;;;;;16.1;100;98120;;;;
2022/08/21 20:58:57;;;;;;;2.6;6.5;;;;;;;16.1;100;98120;;;;
2022/08/21 21:09:57;;;;;;;2.6;6.5;;;;;;;16.2;100;98130;;;;
2022/08/21 21:20:57;;;;;;;3.5;6.2;;;;;;;16.2;100;98120;;;;
2022/08/21 21:30:57;;;;;;;3.5;6.2;;;;;;;16.2;100;98120;;;;
2022/08/21 21:41:56;;;;;;;3.5;6.2;;;;;;;16.2;100;98120;;;;
2022/08/21 21:51:56;;;;;;;1.5;3;;;;;;;16.1;100;98120;;;;
2022/08/21 22:02:57;;;;;;;1.5;3;;;;;;;16.2;100;98120;;;;
2022/08/21 22:12:57;;;;;;;1.5;3;;;;;;;16.2;100;98110;;;;
2022/08/21 22:22:57;;;;;;;1.6;3.5;;;;;;;16.2;100;98110;;;;
2022/08/21 22:32:57;;;;;;;1.6;3.5;;;;;;;16.2;100;98110;;;;
2022/08/21 22:43:57;;;;;;;1.6;3.5;;;;;;;16;100;98120;;;;
2022/08/21 22:54:57;;;;;;;1.3;3;;;;;;;16.2;100;98110;;;;
2022/08/21 23:05:57;;;;;;;1.3;3;;;;;;;16.3;100;98100;;;;
2022/08/21 23:15:56;;;;;;;1.4;3.2;;;;;;;16.1;100;98110;;;;
2022/08/21 23:25:57;;;;;;;1.4;3.2;;;;;;;16.2;100;98110;;;;
2022/08/21 23:38:00;;;;;;;1.4;3.2;;;;;;;16.4;100;98100;;;;
2022/08/21 23:46:57;;;;;;;1.1;2.2;;;;;;;16.5;100;98100;;;;
2022/08/21 23:57:57;;;;;;;1.1;2.2;;;;;;;16.5;100;98090;;;;
